Time;durP1;ratioP1;P1;durP2;ratioP2;P2;SDS_P1;SDS_P2;PMS_P1;PMS_P2;Temp;Humidity;BMP_temperature;BMP_pressure;BME280_temperature;BME280_humidity;BME280_pressure;Samples;Min_cycle;Max_cycle;Signal;HPM_P1;HPM_P2
2022/07/02 00:01:35;;;;;;;;;;;25.90;44.10;;;;;;1567601;74;663;-69
2022/07/02 00:03:37;;;;;;;;;;;25.90;44.10;;;;;;1567146;74;1932;-67
2022/07/02 00:05:41;;;;;;;;;;;25.90;44.10;;;;;;1567354;74;1513;-67
2022/07/02 00:07:43;;;;;;;;;;;25.90;44.10;;;;;;1567346;74;653;-66
2022/07/02 00:09:45;;;;;;;;;;;25.90;44.10;;;;;;1567826;74;844;-67
2022/07/02 00:11:47;;;;;;;;;;;25.90;44.10;;;;;;1567677;74;708;-68
2022/07/02 00:13:50;;;;;;;;;;;25.90;44.00;;;;;;1567264;74;668;-68
2022/07/02 00:15:52;;;;;;;;;;;25.90;43.90;;;;;;1567476;74;1122;-68
2022/07/02 00:17:54;;;;;;;;;;;25.90;44.00;;;;;;1567735;74;735;-68
2022/07/02 00:19:56;;;;;;;;;;;25.90;43.90;;;;;;1563299;74;1487;-68
2022/07/02 00:21:58;;;;;;;;;;;26.00;44.40;;;;;;1567437;74;700;-67
2022/07/02 00:23:59;;;;;;;;;;;25.90;43.90;;;;;;1567490;74;1928;-68
2022/07/02 00:26:06;;;;;;;;;;;25.90;43.70;;;;;;1567473;74;1084;-66
2022/07/02 00:28:08;;;;;;;;;;;25.90;43.70;;;;;;1561581;74;1655;-66
2022/07/02 00:30:10;;;;;;;;;;;25.90;43.70;;;;;;1567511;74;735;-65
2022/07/02 00:32:12;;;;;;;;;;;25.90;43.70;;;;;;1566901;74;679;-68
2022/07/02 00:34:14;;;;;;;;;;;25.90;43.80;;;;;;1567681;74;1306;-68
2022/07/02 00:36:21;;;;;;;;;;;25.90;43.80;;;;;;1564978;74;1152;-68
2022/07/02 00:38:19;;;;;;;;;;;25.90;43.70;;;;;;1562722;74;1579;-68
2022/07/02 00:40:21;;;;;;;;;;;25.90;43.80;;;;;;1567067;74;768;-68
2022/07/02 00:42:26;;;;;;;;;;;25.90;43.70;;;;;;1564809;74;713;-67
2022/07/02 00:44:27;;;;;;;;;;;25.90;43.70;;;;;;1565900;74;1908;-68
2022/07/02 00:46:29;;;;;;;;;;;25.80;43.70;;;;;;1567195;74;1215;-66
2022/07/02 00:48:31;;;;;;;;;;;25.90;43.70;;;;;;1565662;74;1606;-65
2022/07/02 00:50:33;;;;;;;;;;;25.90;43.70;;;;;;1566946;74;880;-66
2022/07/02 00:52:35;;;;;;;;;;;25.90;43.70;;;;;;1566725;74;585;-67
2022/07/02 00:54:38;;;;;;;;;;;25.90;43.70;;;;;;1566861;74;1087;-67
2022/07/02 00:56:40;;;;;;;;;;;25.90;43.60;;;;;;1566749;74;733;-67
2022/07/02 00:58:42;;;;;;;;;;;25.90;43.70;;;;;;1567005;74;679;-65
2022/07/02 01:00:43;;;;;;;;;;;25.90;43.50;;;;;;1565886;74;683;-66
2022/07/02 01:02:45;;;;;;;;;;;25.90;43.40;;;;;;1563592;74;1477;-67
2022/07/02 01:04:47;;;;;;;;;;;25.90;43.50;;;;;;1564988;74;1918;-66
2022/07/02 01:06:49;;;;;;;;;;;25.90;43.60;;;;;;1562371;74;852;-68
2022/07/02 01:11:12;;;;;;;;;;;25.90;43.50;;;;;;1560869;74;1692;-67
2022/07/02 01:13:13;;;;;;;;;;;25.90;43.60;;;;;;1562667;74;687;-69
2022/07/02 01:15:16;;;;;;;;;;;25.90;43.60;;;;;;1561579;74;1485;-68
2022/07/02 01:17:18;;;;;;;;;;;25.90;43.50;;;;;;1553062;74;601;-68
2022/07/02 01:19:20;;;;;;;;;;;25.90;43.50;;;;;;1573912;74;689;-68
2022/07/02 01:21:22;;;;;;;;;;;25.90;43.40;;;;;;1565169;74;609;-67
2022/07/02 01:23:24;;;;;;;;;;;25.90;43.30;;;;;;1566944;74;686;-68
2022/07/02 01:25:26;;;;;;;;;;;25.90;43.20;;;;;;1572396;71;221595;-57
2022/07/02 01:27:27;;;;;;;;;;;25.90;43.20;;;;;;1590313;73;1225;-58
2022/07/02 01:29:29;;;;;;;;;;;25.90;43.20;;;;;;1591586;73;1611;-57
2022/07/02 01:31:31;;;;;;;;;;;25.90;43.20;;;;;;1592288;73;669;-56
2022/07/02 01:33:33;;;;;;;;;;;25.90;43.20;;;;;;1590603;73;775;-55
2022/07/02 01:35:35;;;;;;;;;;;25.90;43.10;;;;;;1584319;73;686;-58
2022/07/02 01:37:37;;;;;;;;;;;26.00;43.60;;;;;;1583520;73;1076;-59
2022/07/02 01:39:40;;;;;;;;;;;25.90;42.90;;;;;;1591364;73;684;-59
2022/07/02 01:41:42;;;;;;;;;;;26.00;43.40;;;;;;1584090;73;713;-56
2022/07/02 01:43:43;;;;;;;;;;;26.00;43.50;;;;;;1592992;73;1934;-59
2022/07/02 01:45:45;;;;;;;;;;;25.90;42.80;;;;;;1586263;73;686;-60
2022/07/02 01:47:47;;;;;;;;;;;25.90;42.80;;;;;;1594848;73;1216;-59
2022/07/02 01:49:49;;;;;;;;;;;25.90;42.80;;;;;;1593880;73;721;-57
2022/07/02 01:51:51;;;;;;;;;;;25.90;42.80;;;;;;1580502;73;679;-57
2022/07/02 01:53:53;;;;;;;;;;;26.00;43.20;;;;;;1578254;73;709;-55
2022/07/02 01:55:55;;;;;;;;;;;25.90;42.70;;;;;;1589126;73;925;-58
2022/07/02 01:57:57;;;;;;;;;;;25.90;42.70;;;;;;1587542;73;1325;-58
2022/07/02 01:59:59;;;;;;;;;;;25.90;42.60;;;;;;1610130;73;645;-58
2022/07/02 02:02:01;;;;;;;;;;;25.90;42.60;;;;;;1596260;73;672;-58
2022/07/02 02:04:03;;;;;;;;;;;25.90;42.60;;;;;;1591303;73;1919;-56
2022/07/02 02:06:05;;;;;;;;;;;25.80;42.70;;;;;;1585684;73;666;-58
2022/07/02 02:08:06;;;;;;;;;;;25.90;42.60;;;;;;1583460;73;673;-58
2022/07/02 02:10:08;;;;;;;;;;;25.90;42.70;;;;;;1588598;73;683;-56
2022/07/02 02:12:10;;;;;;;;;;;25.80;42.70;;;;;;1596025;73;1569;-55
2022/07/02 02:14:12;;;;;;;;;;;25.80;42.70;;;;;;1595205;73;720;-58
2022/07/02 02:16:14;;;;;;;;;;;25.90;42.60;;;;;;1590794;73;1138;-58
2022/07/02 02:18:16;;;;;;;;;;;25.90;42.60;;;;;;1589790;73;742;-58
2022/07/02 02:20:18;;;;;;;;;;;25.90;42.60;;;;;;1589407;73;789;-59
2022/07/02 02:22:21;;;;;;;;;;;25.90;42.50;;;;;;1592429;73;755;-59
2022/07/02 02:24:23;;;;;;;;;;;25.80;42.60;;;;;;1590308;73;1944;-59
2022/07/02 02:26:25;;;;;;;;;;;25.90;42.60;;;;;;1584508;73;1560;-58
2022/07/02 02:28:27;;;;;;;;;;;25.90;42.50;;;;;;1579853;73;647;-56
2022/07/02 02:30:29;;;;;;;;;;;25.80;42.60;;;;;;1596212;73;831;-56
2022/07/02 02:32:31;;;;;;;;;;;25.80;42.50;;;;;;1588552;73;701;-57
2022/07/02 02:34:33;;;;;;;;;;;25.80;42.50;;;;;;1599032;73;703;-59
2022/07/02 02:36:35;;;;;;;;;;;25.80;42.50;;;;;;1593548;73;1181;-58
2022/07/02 02:38:37;;;;;;;;;;;25.90;42.50;;;;;;1574010;73;711;-58
2022/07/02 02:40:39;;;;;;;;;;;25.90;42.60;;;;;;1588403;73;1612;-57
2022/07/02 02:42:41;;;;;;;;;;;25.80;42.60;;;;;;1590559;73;714;-56
2022/07/02 02:44:42;;;;;;;;;;;25.80;42.40;;;;;;1582894;73;1941;-56
2022/07/02 02:46:44;;;;;;;;;;;25.90;42.50;;;;;;1588412;73;1176;-58
2022/07/02 02:48:46;;;;;;;;;;;25.80;42.50;;;;;;1580110;73;721;-57
2022/07/02 02:50:48;;;;;;;;;;;25.80;42.60;;;;;;1582618;73;702;-57
2022/07/02 02:52:50;;;;;;;;;;;25.80;42.50;;;;;;1588468;73;688;-57
2022/07/02 02:54:52;;;;;;;;;;;25.90;42.40;;;;;;1582973;73;1555;-55
2022/07/02 02:56:54;;;;;;;;;;;25.90;42.50;;;;;;1585634;73;1106;-56
2022/07/02 02:58:56;;;;;;;;;;;25.80;42.50;;;;;;1588297;73;724;-58
2022/07/02 03:00:58;;;;;;;;;;;25.90;42.50;;;;;;1583989;73;776;-58
2022/07/02 03:02:59;;;;;;;;;;;25.80;42.50;;;;;;1595275;73;894;-57
2022/07/02 03:05:01;;;;;;;;;;;25.90;42.50;;;;;;1583318;73;1956;-58
2022/07/02 03:07:03;;;;;;;;;;;25.90;42.50;;;;;;1583727;73;1167;-58
2022/07/02 03:09:05;;;;;;;;;;;25.90;42.50;;;;;;1583626;73;1579;-58
2022/07/02 03:11:07;;;;;;;;;;;25.90;42.50;;;;;;1593653;73;845;-56
2022/07/02 03:13:09;;;;;;;;;;;25.90;42.50;;;;;;1595250;73;633;-57
2022/07/02 03:15:11;;;;;;;;;;;25.90;42.50;;;;;;1596187;73;735;-56
2022/07/02 03:17:12;;;;;;;;;;;25.90;42.60;;;;;;1590088;73;1204;-58
2022/07/02 03:19:14;;;;;;;;;;;26.00;43.10;;;;;;1585189;73;759;-58
2022/07/02 03:21:16;;;;;;;;;;;25.90;42.40;;;;;;1583779;73;693;-58
2022/07/02 03:23:18;;;;;;;;;;;26.00;43.00;;;;;;1579923;73;1575;-58
2022/07/02 03:25:20;;;;;;;;;;;25.90;42.60;;;;;;1590247;73;1949;-54
2022/07/02 03:27:22;;;;;;;;;;;26.00;43.10;;;;;;1582994;73;1156;-58
2022/07/02 03:29:24;;;;;;;;;;;25.90;42.70;;;;;;1582606;73;706;-58
2022/07/02 03:31:26;;;;;;;;;;;26.00;43.30;;;;;;1588470;73;755;-57
2022/07/02 03:33:27;;;;;;;;;;;25.90;42.80;;;;;;1589876;73;667;-58
2022/07/02 03:35:29;;;;;;;;;;;25.90;42.90;;;;;;1585471;73;801;-58
2022/07/02 03:37:31;;;;;;;;;;;25.90;43.00;;;;;;1595619;73;1735;-58
2022/07/02 03:39:33;;;;;;;;;;;26.00;43.50;;;;;;1591806;73;684;-56
2022/07/02 03:41:35;;;;;;;;;;;25.90;43.00;;;;;;1595882;73;734;-59
2022/07/02 03:43:37;;;;;;;;;;;26.00;43.60;;;;;;1590674;73;743;-59
2022/07/02 03:45:39;;;;;;;;;;;26.00;43.50;;;;;;1582694;73;1974;-58
2022/07/02 03:47:41;;;;;;;;;;;26.00;43.50;;;;;;1604182;73;1100;-59
2022/07/02 03:49:43;;;;;;;;;;;26.00;43.60;;;;;;1602043;73;768;-58
2022/07/02 03:51:45;;;;;;;;;;;25.90;43.10;;;;;;1598473;73;663;-58
2022/07/02 03:53:47;;;;;;;;;;;26.00;43.90;;;;;;1592255;73;721;-57
2022/07/02 03:55:49;;;;;;;;;;;25.90;43.40;;;;;;1600850;73;923;-56
2022/07/02 03:57:51;;;;;;;;;;;26.00;43.90;;;;;;1591194;73;1112;-57
2022/07/02 03:59:53;;;;;;;;;;;25.90;43.60;;;;;;1600598;73;920;-57
2022/07/02 04:01:55;;;;;;;;;;;25.90;43.60;;;;;;1593829;73;684;-54
2022/07/02 04:03:57;;;;;;;;;;;25.90;43.60;;;;;;1595540;73;839;-52
2022/07/02 04:05:59;;;;;;;;;;;25.90;43.70;;;;;;1584503;73;1934;-57
2022/07/02 04:08:01;;;;;;;;;;;25.90;43.70;;;;;;1587802;73;1108;-57
2022/07/02 04:10:03;;;;;;;;;;;25.90;43.80;;;;;;1588251;73;773;-57
2022/07/02 04:12:05;;;;;;;;;;;25.90;43.80;;;;;;1581052;73;829;-57
2022/07/02 04:14:07;;;;;;;;;;;25.90;43.80;;;;;;1587761;73;619;-57
2022/07/02 04:16:09;;;;;;;;;;;25.90;43.90;;;;;;1579740;73;1076;-57
2022/07/02 04:18:11;;;;;;;;;;;26.00;44.40;;;;;;1585143;73;728;-57
2022/07/02 04:20:13;;;;;;;;;;;25.90;43.90;;;;;;1589182;73;938;-57
2022/07/02 04:22:15;;;;;;;;;;;26.00;44.40;;;;;;1585548;73;750;-57
2022/07/02 04:24:17;;;;;;;;;;;26.00;44.40;;;;;;1588916;73;665;-54
2022/07/02 04:26:18;;;;;;;;;;;25.90;43.90;;;;;;1589521;73;1933;-58
2022/07/02 04:28:20;;;;;;;;;;;25.90;44.10;;;;;;1585297;73;790;-57
2022/07/02 04:30:22;;;;;;;;;;;25.90;44.20;;;;;;1587634;73;750;-57
2022/07/02 04:32:24;;;;;;;;;;;26.00;44.70;;;;;;1579941;73;736;-58
2022/07/02 04:34:26;;;;;;;;;;;25.90;44.30;;;;;;1584484;73;634;-57
2022/07/02 04:36:28;;;;;;;;;;;26.00;44.90;;;;;;1582007;73;1100;-57
2022/07/02 04:38:30;;;;;;;;;;;25.90;44.30;;;;;;1578076;73;651;-54
2022/07/02 04:40:31;;;;;;;;;;;25.90;44.40;;;;;;1583067;73;701;-57
2022/07/02 04:42:33;;;;;;;;;;;25.90;44.40;;;;;;1586410;73;635;-57
2022/07/02 04:44:35;;;;;;;;;;;25.90;44.40;;;;;;1584223;73;754;-57
2022/07/02 04:46:37;;;;;;;;;;;25.90;44.50;;;;;;1587707;73;1948;-57
2022/07/02 04:48:39;;;;;;;;;;;25.90;44.40;;;;;;1580449;73;746;-57
2022/07/02 04:50:41;;;;;;;;;;;25.90;44.50;;;;;;1588084;73;1520;-56
2022/07/02 04:52:48;;;;;;;;;;;25.90;44.60;;;;;;1585321;73;810;-55
2022/07/02 04:54:46;;;;;;;;;;;25.90;44.70;;;;;;1586280;73;1630;-57
2022/07/02 04:56:48;;;;;;;;;;;25.90;44.70;;;;;;1576203;73;1135;-57
2022/07/02 04:58:50;;;;;;;;;;;25.90;44.70;;;;;;1586775;73;751;-57
2022/07/02 05:00:52;;;;;;;;;;;25.90;44.70;;;;;;1587092;73;720;-52
2022/07/02 05:02:55;;;;;;;;;;;25.90;44.70;;;;;;1583667;73;775;-54
2022/07/02 05:04:57;;;;;;;;;;;25.90;44.80;;;;;;1583267;73;1938;-57
2022/07/02 05:06:59;;;;;;;;;;;25.90;44.80;;;;;;1593647;73;1154;-57
2022/07/02 05:09:01;;;;;;;;;;;25.90;44.80;;;;;;1591211;73;738;-58
2022/07/02 05:11:02;;;;;;;;;;;25.90;44.80;;;;;;1594565;73;690;-57
2022/07/02 05:13:04;;;;;;;;;;;25.90;44.80;;;;;;1583220;73;725;-55
2022/07/02 05:15:07;;;;;;;;;;;25.90;45.00;;;;;;1582278;73;806;-54
2022/07/02 05:17:08;;;;;;;;;;;25.90;44.90;;;;;;1587440;73;1142;-54
2022/07/02 05:19:10;;;;;;;;;;;25.90;44.90;;;;;;1590496;73;673;-57
2022/07/02 05:21:12;;;;;;;;;;;25.90;45.00;;;;;;1591447;73;671;-57
2022/07/02 05:23:14;;;;;;;;;;;25.90;44.90;;;;;;1581751;73;672;-57
2022/07/02 05:25:16;;;;;;;;;;;25.90;44.90;;;;;;1593244;73;1946;-57
2022/07/02 05:27:18;;;;;;;;;;;26.00;45.50;;;;;;1579317;73;1122;-57
2022/07/02 05:29:20;;;;;;;;;;;26.00;45.50;;;;;;1587998;73;786;-56
2022/07/02 05:31:22;;;;;;;;;;;26.00;45.50;;;;;;1590878;73;722;-52
2022/07/02 05:33:23;;;;;;;;;;;26.00;45.60;;;;;;1580174;73;745;-55
2022/07/02 05:35:25;;;;;;;;;;;26.00;45.50;;;;;;1585561;73;864;-58
2022/07/02 05:37:27;;;;;;;;;;;26.00;45.50;;;;;;1589203;73;1157;-57
2022/07/02 05:39:29;;;;;;;;;;;26.00;45.50;;;;;;1594676;73;682;-58
2022/07/02 05:41:31;;;;;;;;;;;26.00;45.50;;;;;;1582951;73;709;-59
2022/07/02 05:43:33;;;;;;;;;;;26.00;45.50;;;;;;1583359;73;708;-56
2022/07/02 05:45:35;;;;;;;;;;;26.00;45.70;;;;;;1591487;73;1941;-55
2022/07/02 05:47:36;;;;;;;;;;;26.00;45.60;;;;;;1590525;73;1542;-59
2022/07/02 05:49:38;;;;;;;;;;;26.00;45.60;;;;;;1601217;73;731;-59
2022/07/02 05:51:40;;;;;;;;;;;26.00;45.70;;;;;;1585463;73;673;-57
2022/07/02 05:53:42;;;;;;;;;;;26.00;45.70;;;;;;1593135;73;772;-59
2022/07/02 05:55:44;;;;;;;;;;;26.00;45.70;;;;;;1593631;73;602;-57
2022/07/02 05:57:46;;;;;;;;;;;26.10;45.70;;;;;;1587908;73;1145;-58
2022/07/02 05:59:48;;;;;;;;;;;26.10;45.60;;;;;;1591862;73;759;-56
2022/07/02 06:01:50;;;;;;;;;;;26.10;45.70;;;;;;1579445;73;1616;-59
2022/07/02 06:03:51;;;;;;;;;;;26.00;45.60;;;;;;1584743;73;711;-60
2022/07/02 06:08:13;;;;;;;;;;;26.10;45.70;;;;;;1589392;73;1666;-59
2022/07/02 06:10:18;;;;;;;;;;;26.10;45.80;;;;;;1582205;73;796;-59
2022/07/02 06:12:19;;;;;;;;;;;26.20;45.70;;;;;;1587677;73;1659;-57
2022/07/02 06:14:21;;;;;;;;;;;26.20;45.70;;;;;;1588169;73;1328;-58
2022/07/02 06:16:23;;;;;;;;;;;26.20;45.70;;;;;;1590841;73;1118;-59
2022/07/02 06:18:25;;;;;;;;;;;26.30;45.50;;;;;;1577283;73;763;-59
2022/07/02 06:20:27;;;;;;;;;;;26.30;45.50;;;;;;1581313;73;807;-59
2022/07/02 06:22:28;;;;;;;;;;;26.20;45.50;;;;;;1589335;73;757;-57
2022/07/02 06:24:30;;;;;;;;;;;26.10;45.50;;;;;;1592108;73;723;-58
2022/07/02 06:26:32;;;;;;;;;;;26.20;45.50;;;;;;1594571;73;1949;-59
2022/07/02 06:28:34;;;;;;;;;;;26.10;45.60;;;;;;1587044;73;1490;-56
2022/07/02 06:30:36;;;;;;;;;;;26.00;45.70;;;;;;1589261;73;663;-59
2022/07/02 06:32:38;;;;;;;;;;;26.00;45.70;;;;;;1591245;73;732;-58
2022/07/02 06:34:40;;;;;;;;;;;26.00;45.70;;;;;;1583382;73;674;-59
2022/07/02 06:36:42;;;;;;;;;;;26.00;45.70;;;;;;1598661;73;1135;-56
2022/07/02 06:38:43;;;;;;;;;;;25.90;45.30;;;;;;1607719;73;631;-59
2022/07/02 06:40:45;;;;;;;;;;;26.00;45.80;;;;;;1595036;73;723;-58
2022/07/02 06:42:47;;;;;;;;;;;25.90;45.20;;;;;;1593323;73;1550;-56
2022/07/02 06:44:51;;;;;;;;;;;25.90;45.20;;;;;;1589196;73;722;-59
2022/07/02 06:46:53;;;;;;;;;;;26.00;45.70;;;;;;1595831;73;1965;-59
2022/07/02 06:48:54;;;;;;;;;;;25.90;45.20;;;;;;1604392;73;779;-59
2022/07/02 06:50:56;;;;;;;;;;;25.90;45.20;;;;;;1603193;73;722;-57
2022/07/02 06:52:58;;;;;;;;;;;25.90;45.20;;;;;;1584634;73;672;-58
2022/07/02 06:55:00;;;;;;;;;;;25.90;45.20;;;;;;1589390;73;718;-58
2022/07/02 06:57:02;;;;;;;;;;;25.90;45.20;;;;;;1594372;73;1573;-59
2022/07/02 06:59:04;;;;;;;;;;;25.90;45.20;;;;;;1597416;73;689;-55
2022/07/02 07:01:06;;;;;;;;;;;25.90;45.20;;;;;;1596349;73;699;-55
2022/07/02 07:03:08;;;;;;;;;;;25.90;45.20;;;;;;1594410;73;654;-59
2022/07/02 07:05:10;;;;;;;;;;;25.90;45.20;;;;;;1599291;73;713;-59
2022/07/02 07:07:12;;;;;;;;;;;25.90;45.10;;;;;;1596563;73;1942;-59
2022/07/02 07:09:14;;;;;;;;;;;25.90;45.10;;;;;;1593537;73;686;-59
2022/07/02 07:11:16;;;;;;;;;;;25.90;45.10;;;;;;1591064;73;1570;-57
2022/07/02 07:13:18;;;;;;;;;;;25.90;45.10;;;;;;1598610;73;669;-57
2022/07/02 07:15:20;;;;;;;;;;;25.90;45.10;;;;;;1605915;73;669;-57
2022/07/02 07:17:21;;;;;;;;;;;25.90;45.10;;;;;;1595605;73;1133;-57
2022/07/02 07:19:23;;;;;;;;;;;25.90;45.00;;;;;;1593383;73;710;-58
2022/07/02 07:21:25;;;;;;;;;;;25.90;45.10;;;;;;1591476;73;688;-59
2022/07/02 07:23:27;;;;;;;;;;;25.90;45.10;;;;;;1595821;73;807;-58
2022/07/02 07:27:33;;;;;;;;;;;25.90;45.00;;;;;;1534391;76;1947;-65
2022/07/02 07:29:35;;;;;;;;;;;25.90;45.00;;;;;;1507146;77;722;-64
2022/07/02 07:31:37;;;;;;;;;;;25.90;45.00;;;;;;1519688;76;665;-64
2022/07/02 07:33:40;;;;;;;;;;;25.90;45.00;;;;;;1519661;76;793;-64
2022/07/02 07:35:42;;;;;;;;;;;25.90;45.00;;;;;;1517875;77;1217;-63
2022/07/02 07:37:57;;;;;;;;;;;25.90;45.00;;;;;;1506192;77;552;-64
2022/07/02 07:39:47;;;;;;;;;;;25.90;45.00;;;;;;1511801;77;1733;-64
2022/07/02 07:41:49;;;;;;;;;;;25.90;45.00;;;;;;1512964;77;736;-64
2022/07/02 07:43:52;;;;;;;;;;;25.90;45.00;;;;;;1506490;77;807;-64
2022/07/02 07:45:54;;;;;;;;;;;25.90;45.00;;;;;;1511396;77;1920;-64
2022/07/02 07:47:56;;;;;;;;;;;25.90;45.00;;;;;;1510122;77;692;-65
2022/07/02 07:49:58;;;;;;;;;;;25.90;45.00;;;;;;1515267;77;651;-65
2022/07/02 07:52:00;;;;;;;;;;;25.90;45.00;;;;;;1509107;77;741;-63
2022/07/02 07:54:02;;;;;;;;;;;25.90;44.90;;;;;;1520736;77;1573;-63
2022/07/02 07:56:04;;;;;;;;;;;25.90;45.00;;;;;;1538795;76;1143;-62
2022/07/02 07:58:06;;;;;;;;;;;25.90;44.90;;;;;;1533573;76;700;-64
2022/07/02 08:00:08;;;;;;;;;;;25.90;44.90;;;;;;1533192;76;769;-63
2022/07/02 08:02:10;;;;;;;;;;;25.90;45.00;;;;;;1538754;76;681;-64
2022/07/02 08:04:12;;;;;;;;;;;25.90;45.00;;;;;;1531844;76;672;-63
2022/07/02 08:06:15;;;;;;;;;;;25.90;44.90;;;;;;1544987;76;1950;-63
2022/07/02 08:08:17;;;;;;;;;;;26.00;45.50;;;;;;1534818;75;1391;-64
2022/07/02 08:10:19;;;;;;;;;;;25.90;45.00;;;;;;1530859;75;711;-62
2022/07/02 08:12:21;;;;;;;;;;;25.90;45.00;;;;;;1531658;76;748;-64
2022/07/02 08:14:23;;;;;;;;;;;25.90;45.00;;;;;;1536676;75;751;-63
2022/07/02 08:16:24;;;;;;;;;;;25.90;44.90;;;;;;1533083;75;1153;-63
2022/07/02 08:18:26;;;;;;;;;;;26.00;45.50;;;;;;1537483;75;718;-62
2022/07/02 08:20:28;;;;;;;;;;;25.90;44.90;;;;;;1531005;75;655;-64
2022/07/02 08:22:30;;;;;;;;;;;25.90;45.00;;;;;;1531135;76;726;-61
2022/07/02 08:24:32;;;;;;;;;;;25.90;45.00;;;;;;1523549;75;729;-63
2022/07/02 08:26:34;;;;;;;;;;;25.90;44.90;;;;;;1529370;75;1927;-63
2022/07/02 08:28:36;;;;;;;;;;;25.90;44.90;;;;;;1531859;75;696;-64
2022/07/02 08:30:38;;;;;;;;;;;26.00;45.50;;;;;;1532659;76;570;-63
2022/07/02 08:32:39;;;;;;;;;;;26.00;45.50;;;;;;1544820;76;572;-63
2022/07/02 08:34:41;;;;;;;;;;;25.90;44.90;;;;;;1537153;76;672;-64
2022/07/02 08:36:43;;;;;;;;;;;26.00;45.50;;;;;;1531913;76;1151;-62
2022/07/02 08:38:45;;;;;;;;;;;26.00;45.50;;;;;;1532528;76;657;-63
2022/07/02 08:40:47;;;;;;;;;;;26.00;45.50;;;;;;1535041;76;749;-63
2022/07/02 08:42:49;;;;;;;;;;;26.00;45.50;;;;;;1531152;76;753;-63
2022/07/02 08:44:51;;;;;;;;;;;26.00;45.50;;;;;;1525281;76;943;-62
2022/07/02 08:46:53;;;;;;;;;;;26.00;45.40;;;;;;1537094;76;1939;-63
2022/07/02 08:48:55;;;;;;;;;;;26.00;45.40;;;;;;1542182;76;696;-64
2022/07/02 08:50:57;;;;;;;;;;;26.00;45.40;;;;;;1542133;75;713;-63
2022/07/02 08:52:59;;;;;;;;;;;26.00;45.40;;;;;;1529781;76;723;-63
2022/07/02 08:55:01;;;;;;;;;;;26.00;45.40;;;;;;1534428;76;676;-63
2022/07/02 08:57:03;;;;;;;;;;;26.00;45.40;;;;;;1543118;76;1086;-64
2022/07/02 08:59:05;;;;;;;;;;;26.00;45.40;;;;;;1533488;76;1083;-64
2022/07/02 09:01:10;;;;;;;;;;;26.00;45.40;;;;;;1528165;76;695;-65
2022/07/02 09:03:14;;;;;;;;;;;26.00;45.40;;;;;;1535168;76;701;-63
2022/07/02 09:05:15;;;;;;;;;;;26.00;45.50;;;;;;1530349;76;646;-63
2022/07/02 09:07:22;;;;;;;;;;;26.00;45.40;;;;;;1537635;76;1937;-64
2022/07/02 09:09:21;;;;;;;;;;;26.00;45.40;;;;;;1533425;76;1251;-63
2022/07/02 09:11:23;;;;;;;;;;;26.00;45.40;;;;;;1536319;76;728;-63
2022/07/02 09:13:25;;;;;;;;;;;26.00;45.40;;;;;;1533516;76;743;-63
2022/07/02 09:15:27;;;;;;;;;;;26.00;45.40;;;;;;1534689;76;675;-64
2022/07/02 09:17:28;;;;;;;;;;;26.00;45.40;;;;;;1540275;76;717;-64
2022/07/02 09:19:30;;;;;;;;;;;26.00;45.40;;;;;;1528933;76;677;-64
2022/07/02 09:21:42;;;;;;;;;;;26.00;45.40;;;;;;1533332;76;1545;-64
2022/07/02 09:23:48;;;;;;;;;;;26.00;45.40;;;;;;1530395;76;664;-62
2022/07/02 09:25:50;;;;;;;;;;;26.00;45.40;;;;;;1533922;76;1155;-65
2022/07/02 09:27:59;;;;;;;;;;;26.00;45.50;;;;;;1544280;76;1929;-64
2022/07/02 09:30:00;;;;;;;;;;;26.00;45.50;;;;;;1534710;76;708;-64
2022/07/02 09:32:02;;;;;;;;;;;25.90;45.00;;;;;;1533354;76;712;-61
2022/07/02 09:34:04;;;;;;;;;;;26.00;45.50;;;;;;1530660;76;692;-65
2022/07/02 09:36:10;;;;;;;;;;;26.00;45.40;;;;;;1533045;76;1116;-64
2022/07/02 09:38:12;;;;;;;;;;;26.00;45.50;;;;;;1532880;76;747;-65
2022/07/02 09:40:14;;;;;;;;;;;26.00;45.50;;;;;;1537988;76;800;-62
2022/07/02 09:42:20;;;;;;;;;;;26.00;45.50;;;;;;1533890;76;682;-62
2022/07/02 09:44:22;;;;;;;;;;;26.00;45.40;;;;;;1530969;76;1838;-62
2022/07/02 09:46:24;;;;;;;;;;;26.00;45.50;;;;;;1533514;76;1118;-62
2022/07/02 09:48:26;;;;;;;;;;;26.10;45.40;;;;;;1544117;76;1926;-64
2022/07/02 09:50:28;;;;;;;;;;;26.00;45.40;;;;;;1532332;76;785;-64
2022/07/02 09:52:30;;;;;;;;;;;26.00;45.50;;;;;;1539918;76;697;-63
2022/07/02 09:54:32;;;;;;;;;;;26.00;45.50;;;;;;1543819;76;660;-64
2022/07/02 09:56:33;;;;;;;;;;;26.00;45.50;;;;;;1540854;76;1135;-64
2022/07/02 09:58:35;;;;;;;;;;;26.00;45.50;;;;;;1547879;76;660;-64
2022/07/02 10:00:39;;;;;;;;;;;26.00;45.50;;;;;;1531712;76;726;-65
2022/07/02 10:02:41;;;;;;;;;;;26.00;45.50;;;;;;1539409;76;1057;-63
2022/07/02 10:04:44;;;;;;;;;;;26.00;45.50;;;;;;1529489;76;689;-63
2022/07/02 10:06:46;;;;;;;;;;;26.00;45.50;;;;;;1532807;76;1939;-66
2022/07/02 10:08:48;;;;;;;;;;;26.00;45.50;;;;;;1535425;76;700;-65
2022/07/02 10:10:50;;;;;;;;;;;25.90;45.00;;;;;;1508211;78;741;-65
2022/07/02 10:12:52;;;;;;;;;;;26.00;45.50;;;;;;1514107;77;750;-64
2022/07/02 10:14:54;;;;;;;;;;;26.00;45.50;;;;;;1508754;77;765;-64
2022/07/02 10:16:55;;;;;;;;;;;26.00;45.60;;;;;;1518495;77;1128;-64
2022/07/02 10:19:00;;;;;;;;;;;26.00;45.50;;;;;;1505218;77;718;-65
2022/07/02 10:21:03;;;;;;;;;;;26.00;45.50;;;;;;1508483;77;731;-65
2022/07/02 10:23:05;;;;;;;;;;;26.00;45.50;;;;;;1528121;76;607;-65
2022/07/02 10:25:07;;;;;;;;;;;25.90;45.00;;;;;;1527566;76;704;-64
2022/07/02 10:27:09;;;;;;;;;;;26.00;45.50;;;;;;1519714;76;1952;-64
2022/07/02 10:29:11;;;;;;;;;;;25.90;45.00;;;;;;1531463;76;775;-65
2022/07/02 10:31:21;;;;;;;;;;;26.00;45.50;;;;;;1523274;76;754;-64
2022/07/02 10:33:42;;;;;;;;;;;26.00;45.60;;;;;;1522412;76;788;-64
2022/07/02 10:35:44;;;;;;;;;;;26.00;45.60;;;;;;1524888;76;1155;-65
2022/07/02 10:37:45;;;;;;;;;;;25.90;45.10;;;;;;1524446;76;729;-65
2022/07/02 10:39:47;;;;;;;;;;;26.00;45.60;;;;;;1533434;76;672;-65
2022/07/02 10:41:49;;;;;;;;;;;25.90;45.00;;;;;;1520981;76;598;-65
2022/07/02 10:43:51;;;;;;;;;;;26.00;45.50;;;;;;1520107;76;685;-65
2022/07/02 10:46:03;;;;;;;;;;;26.00;45.60;;;;;;1499526;77;1208;-65
2022/07/02 10:48:05;;;;;;;;;;;26.00;45.60;;;;;;1529860;76;1908;-65
2022/07/02 10:50:08;;;;;;;;;;;26.00;45.60;;;;;;1528087;76;742;-66
2022/07/02 10:52:10;;;;;;;;;;;26.00;45.60;;;;;;1526319;76;693;-65
2022/07/02 10:54:11;;;;;;;;;;;26.00;45.60;;;;;;1522669;76;687;-66
2022/07/02 10:56:13;;;;;;;;;;;26.00;45.60;;;;;;1533175;76;1151;-65
2022/07/02 10:58:19;;;;;;;;;;;26.00;45.60;;;;;;1525818;76;687;-65
2022/07/02 11:00:22;;;;;;;;;;;26.00;45.60;;;;;;1526195;77;619;-64
2022/07/02 11:02:26;;;;;;;;;;;25.90;45.00;;;;;;1524810;76;1463;-65
2022/07/02 11:04:28;;;;;;;;;;;26.00;45.50;;;;;;1520654;76;1945;-65
2022/07/02 11:06:31;;;;;;;;;;;26.00;45.60;;;;;;1527664;76;1153;-63
2022/07/02 11:08:49;;;;;;;;;;;26.00;45.60;;;;;;1523781;76;1946;-65
2022/07/02 11:10:51;;;;;;;;;;;26.00;45.60;;;;;;1529885;76;682;-65
2022/07/02 11:12:57;;;;;;;;;;;25.90;45.10;;;;;;1522384;76;677;-66
2022/07/02 11:14:59;;;;;;;;;;;26.00;45.70;;;;;;1530944;76;1545;-65
2022/07/02 11:17:01;;;;;;;;;;;25.90;45.20;;;;;;1529744;76;1175;-65
2022/07/02 11:19:03;;;;;;;;;;;26.00;45.70;;;;;;1522518;76;756;-65
2022/07/02 11:21:05;;;;;;;;;;;25.90;45.20;;;;;;1516003;76;723;-65
2022/07/02 11:23:07;;;;;;;;;;;26.00;45.70;;;;;;1519875;76;776;-65
2022/07/02 11:25:09;;;;;;;;;;;25.90;45.20;;;;;;1527241;76;799;-65
2022/07/02 11:27:11;;;;;;;;;;;25.90;45.20;;;;;;1523777;76;1154;-65
2022/07/02 11:29:13;;;;;;;;;;;26.00;45.70;;;;;;1524917;76;1945;-64
2022/07/02 11:31:15;;;;;;;;;;;25.90;45.20;;;;;;1513795;76;700;-66
2022/07/02 11:33:16;;;;;;;;;;;26.00;45.80;;;;;;1531725;76;681;-65
2022/07/02 11:35:18;;;;;;;;;;;26.00;45.80;;;;;;1524852;76;783;-65
2022/07/02 11:37:23;;;;;;;;;;;25.90;45.20;;;;;;1527732;76;1138;-64
2022/07/02 11:39:25;;;;;;;;;;;25.90;45.20;;;;;;1519972;76;644;-66
2022/07/02 11:41:29;;;;;;;;;;;26.00;45.70;;;;;;1529281;76;693;-72
2022/07/02 11:43:31;;;;;;;;;;;26.00;45.80;;;;;;1522058;76;754;-64
2022/07/02 11:45:34;;;;;;;;;;;26.00;45.70;;;;;;1523544;76;1156;-65
2022/07/02 11:47:44;;;;;;;;;;;25.90;45.30;;;;;;1524811;76;1925;-66
2022/07/02 11:49:45;;;;;;;;;;;25.90;45.20;;;;;;1521265;76;1029;-65
2022/07/02 11:51:48;;;;;;;;;;;25.90;45.30;;;;;;1521993;76;668;-65
2022/07/02 11:53:59;;;;;;;;;;;25.90;45.30;;;;;;1525659;77;823;-66
2022/07/02 11:56:04;;;;;;;;;;;25.90;45.30;;;;;;1526398;76;1125;-66
2022/07/02 11:58:06;;;;;;;;;;;25.90;45.40;;;;;;1530234;76;658;-65
2022/07/02 12:00:09;;;;;;;;;;;26.00;45.90;;;;;;1521550;76;664;-65
2022/07/02 12:02:10;;;;;;;;;;;26.00;46.00;;;;;;1525953;76;693;-65
2022/07/02 12:04:13;;;;;;;;;;;25.90;45.30;;;;;;1523241;76;728;-65
2022/07/02 12:06:15;;;;;;;;;;;25.90;45.30;;;;;;1522829;77;1139;-66
2022/07/02 12:08:17;;;;;;;;;;;25.90;45.30;;;;;;1521706;76;1940;-65
2022/07/02 12:10:19;;;;;;;;;;;25.90;45.30;;;;;;1528471;76;1623;-65
2022/07/02 12:12:21;;;;;;;;;;;25.90;45.30;;;;;;1533789;76;715;-65
2022/07/02 12:14:26;;;;;;;;;;;25.90;45.30;;;;;;1508415;77;1422;-65
2022/07/02 12:16:28;;;;;;;;;;;25.90;45.30;;;;;;1527572;76;1165;-66